sensor_id;sensor_type;location;lat;lon;timestamp;P1;durP1;ratioP1;P2;durP2;ratioP2
11396;SDS011;5754;43.726;7.416;2024-03-22T00:02:30;35.53;;;32.67;;
11396;SDS011;5754;43.726;7.416;2024-03-22T00:05:06;40.40;;;36.83;;
11396;SDS011;5754;43.726;7.416;2024-03-22T00:07:40;33.90;;;31.03;;
11396;SDS011;5754;43.726;7.416;2024-03-22T00:10:14;28.63;;;26.43;;
11396;SDS011;5754;43.726;7.416;2024-03-22T00:12:49;28.17;;;26.17;;
11396;SDS011;5754;43.726;7.416;2024-03-22T00:15:24;28.27;;;26.27;;
11396;SDS011;5754;43.726;7.416;2024-03-22T00:17:59;28.03;;;25.93;;
11396;SDS011;5754;43.726;7.416;2024-03-22T00:20:33;27.30;;;25.30;;
11396;SDS011;5754;43.726;7.416;2024-03-22T00:23:09;24.37;;;22.60;;
11396;SDS011;5754;43.726;7.416;2024-03-22T00:25:45;24.67;;;22.80;;
11396;SDS011;5754;43.726;7.416;2024-03-22T00:28:20;26.10;;;24.07;;
11396;SDS011;5754;43.726;7.416;2024-03-22T00:30:55;25.77;;;23.77;;
11396;SDS011;5754;43.726;7.416;2024-03-22T00:33:30;26.57;;;24.03;;
11396;SDS011;5754;43.726;7.416;2024-03-22T00:36:04;26.67;;;24.27;;
11396;SDS011;5754;43.726;7.416;2024-03-22T00:38:40;25.87;;;23.87;;
11396;SDS011;5754;43.726;7.416;2024-03-22T00:41:15;24.13;;;22.43;;
11396;SDS011;5754;43.726;7.416;2024-03-22T00:43:50;28.00;;;25.90;;
11396;SDS011;5754;43.726;7.416;2024-03-22T00:46:25;28.10;;;26.07;;
11396;SDS011;5754;43.726;7.416;2024-03-22T00:49:00;28.13;;;26.03;;
11396;SDS011;5754;43.726;7.416;2024-03-22T00:51:35;26.50;;;24.50;;
11396;SDS011;5754;43.726;7.416;2024-03-22T00:54:11;28.07;;;25.97;;
11396;SDS011;5754;43.726;7.416;2024-03-22T00:56:45;26.30;;;24.50;;
11396;SDS011;5754;43.726;7.416;2024-03-22T00:59:20;25.97;;;24.17;;
11396;SDS011;5754;43.726;7.416;2024-03-22T01:01:55;27.30;;;25.20;;
11396;SDS011;5754;43.726;7.416;2024-03-22T01:04:30;26.60;;;24.63;;
11396;SDS011;5754;43.726;7.416;2024-03-22T01:07:05;26.60;;;24.80;;
11396;SDS011;5754;43.726;7.416;2024-03-22T01:09:39;27.97;;;25.93;;
11396;SDS011;5754;43.726;7.416;2024-03-22T01:12:15;27.20;;;25.30;;
11396;SDS011;5754;43.726;7.416;2024-03-22T01:14:49;28.77;;;26.63;;
11396;SDS011;5754;43.726;7.416;2024-03-22T01:17:24;27.83;;;25.93;;
11396;SDS011;5754;43.726;7.416;2024-03-22T01:19:59;26.00;;;24.10;;
11396;SDS011;5754;43.726;7.416;2024-03-22T01:22:36;26.43;;;24.63;;
11396;SDS011;5754;43.726;7.416;2024-03-22T01:25:11;27.13;;;25.03;;
11396;SDS011;5754;43.726;7.416;2024-03-22T01:27:45;26.17;;;24.33;;
11396;SDS011;5754;43.726;7.416;2024-03-22T01:30:20;29.00;;;26.67;;
11396;SDS011;5754;43.726;7.416;2024-03-22T01:32:54;29.47;;;27.30;;
11396;SDS011;5754;43.726;7.416;2024-03-22T01:35:29;32.47;;;29.90;;
11396;SDS011;5754;43.726;7.416;2024-03-22T01:38:04;33.40;;;30.80;;
11396;SDS011;5754;43.726;7.416;2024-03-22T01:40:39;33.93;;;31.40;;
11396;SDS011;5754;43.726;7.416;2024-03-22T01:43:13;33.27;;;30.60;;
11396;SDS011;5754;43.726;7.416;2024-03-22T01:45:47;34.63;;;31.93;;
11396;SDS011;5754;43.726;7.416;2024-03-22T01:51:03;35.60;;;32.90;;
11396;SDS011;5754;43.726;7.416;2024-03-22T01:53:39;33.80;;;31.23;;
11396;SDS011;5754;43.726;7.416;2024-03-22T01:56:14;32.33;;;29.97;;
11396;SDS011;5754;43.726;7.416;2024-03-22T01:58:49;33.03;;;30.53;;
11396;SDS011;5754;43.726;7.416;2024-03-22T02:01:26;35.60;;;32.80;;
11396;SDS011;5754;43.726;7.416;2024-03-22T02:04:01;35.43;;;32.60;;
11396;SDS011;5754;43.726;7.416;2024-03-22T02:06:35;37.07;;;33.97;;
11396;SDS011;5754;43.726;7.416;2024-03-22T02:09:11;37.10;;;34.07;;
11396;SDS011;5754;43.726;7.416;2024-03-22T02:11:46;37.27;;;34.37;;
11396;SDS011;5754;43.726;7.416;2024-03-22T02:14:22;38.63;;;35.43;;
11396;SDS011;5754;43.726;7.416;2024-03-22T02:16:56;36.13;;;33.20;;
11396;SDS011;5754;43.726;7.416;2024-03-22T02:19:30;38.80;;;35.60;;
11396;SDS011;5754;43.726;7.416;2024-03-22T02:22:05;38.00;;;34.80;;
11396;SDS011;5754;43.726;7.416;2024-03-22T02:24:40;37.27;;;34.17;;
11396;SDS011;5754;43.726;7.416;2024-03-22T02:27:14;37.23;;;34.03;;
11396;SDS011;5754;43.726;7.416;2024-03-22T02:29:49;38.50;;;35.20;;
11396;SDS011;5754;43.726;7.416;2024-03-22T02:32:24;37.83;;;34.83;;
11396;SDS011;5754;43.726;7.416;2024-03-22T02:34:59;37.00;;;33.87;;
11396;SDS011;5754;43.726;7.416;2024-03-22T02:37:34;37.90;;;34.87;;
11396;SDS011;5754;43.726;7.416;2024-03-22T02:40:09;40.13;;;36.70;;
11396;SDS011;5754;43.726;7.416;2024-03-22T02:42:44;38.10;;;34.63;;
11396;SDS011;5754;43.726;7.416;2024-03-22T02:45:19;37.80;;;34.70;;
11396;SDS011;5754;43.726;7.416;2024-03-22T02:47:54;37.60;;;34.50;;
11396;SDS011;5754;43.726;7.416;2024-03-22T02:50:32;36.50;;;33.30;;
11396;SDS011;5754;43.726;7.416;2024-03-22T02:53:08;36.93;;;33.77;;
11396;SDS011;5754;43.726;7.416;2024-03-22T02:55:44;36.43;;;33.53;;
11396;SDS011;5754;43.726;7.416;2024-03-22T02:58:19;39.03;;;35.60;;
11396;SDS011;5754;43.726;7.416;2024-03-22T03:00:55;36.37;;;33.33;;
11396;SDS011;5754;43.726;7.416;2024-03-22T03:03:29;38.00;;;34.80;;
11396;SDS011;5754;43.726;7.416;2024-03-22T03:06:04;37.43;;;34.37;;
11396;SDS011;5754;43.726;7.416;2024-03-22T03:08:39;36.37;;;33.40;;
11396;SDS011;5754;43.726;7.416;2024-03-22T03:11:14;36.23;;;33.23;;
11396;SDS011;5754;43.726;7.416;2024-03-22T03:13:48;35.77;;;32.57;;
11396;SDS011;5754;43.726;7.416;2024-03-22T03:16:25;35.40;;;32.50;;
11396;SDS011;5754;43.726;7.416;2024-03-22T03:19:01;35.03;;;32.17;;
11396;SDS011;5754;43.726;7.416;2024-03-22T03:21:36;35.13;;;32.33;;
11396;SDS011;5754;43.726;7.416;2024-03-22T03:24:10;36.33;;;33.33;;
11396;SDS011;5754;43.726;7.416;2024-03-22T03:26:46;35.17;;;32.37;;
11396;SDS011;5754;43.726;7.416;2024-03-22T03:29:20;36.73;;;33.83;;
11396;SDS011;5754;43.726;7.416;2024-03-22T03:31:56;37.00;;;34.10;;
11396;SDS011;5754;43.726;7.416;2024-03-22T03:34:31;35.40;;;32.17;;
11396;SDS011;5754;43.726;7.416;2024-03-22T03:37:07;35.83;;;32.77;;
11396;SDS011;5754;43.726;7.416;2024-03-22T03:39:41;34.30;;;31.63;;
11396;SDS011;5754;43.726;7.416;2024-03-22T03:42:16;37.70;;;34.47;;
11396;SDS011;5754;43.726;7.416;2024-03-22T03:44:51;34.53;;;31.53;;
11396;SDS011;5754;43.726;7.416;2024-03-22T03:47:26;34.40;;;31.50;;
11396;SDS011;5754;43.726;7.416;2024-03-22T03:50:00;32.60;;;29.77;;
11396;SDS011;5754;43.726;7.416;2024-03-22T03:52:35;34.70;;;31.40;;
11396;SDS011;5754;43.726;7.416;2024-03-22T03:55:11;36.97;;;33.90;;
11396;SDS011;5754;43.726;7.416;2024-03-22T03:57:45;34.73;;;31.93;;
11396;SDS011;5754;43.726;7.416;2024-03-22T04:00:21;37.07;;;34.03;;
11396;SDS011;5754;43.726;7.416;2024-03-22T04:02:56;35.70;;;32.70;;
11396;SDS011;5754;43.726;7.416;2024-03-22T04:05:30;34.83;;;31.93;;
11396;SDS011;5754;43.726;7.416;2024-03-22T04:08:06;34.17;;;31.37;;
11396;SDS011;5754;43.726;7.416;2024-03-22T04:10:41;33.87;;;30.43;;
11396;SDS011;5754;43.726;7.416;2024-03-22T04:13:15;31.37;;;28.80;;
11396;SDS011;5754;43.726;7.416;2024-03-22T04:15:50;29.47;;;27.07;;
11396;SDS011;5754;43.726;7.416;2024-03-22T04:18:24;29.20;;;26.70;;
11396;SDS011;5754;43.726;7.416;2024-03-22T04:20:59;29.33;;;26.87;;
11396;SDS011;5754;43.726;7.416;2024-03-22T04:23:34;30.27;;;27.67;;
11396;SDS011;5754;43.726;7.416;2024-03-22T04:26:08;29.50;;;27.10;;
11396;SDS011;5754;43.726;7.416;2024-03-22T04:28:44;29.53;;;26.87;;
11396;SDS011;5754;43.726;7.416;2024-03-22T04:31:19;28.90;;;26.47;;
11396;SDS011;5754;43.726;7.416;2024-03-22T04:33:53;30.17;;;27.53;;
11396;SDS011;5754;43.726;7.416;2024-03-22T04:36:28;30.80;;;28.07;;
11396;SDS011;5754;43.726;7.416;2024-03-22T04:39:02;29.80;;;27.30;;
11396;SDS011;5754;43.726;7.416;2024-03-22T04:41:37;28.33;;;25.83;;
11396;SDS011;5754;43.726;7.416;2024-03-22T04:44:14;28.87;;;26.60;;
11396;SDS011;5754;43.726;7.416;2024-03-22T04:46:48;28.50;;;26.10;;
11396;SDS011;5754;43.726;7.416;2024-03-22T04:49:22;27.80;;;25.67;;
11396;SDS011;5754;43.726;7.416;2024-03-22T04:51:58;28.63;;;26.23;;
11396;SDS011;5754;43.726;7.416;2024-03-22T04:54:32;28.73;;;26.53;;
11396;SDS011;5754;43.726;7.416;2024-03-22T04:57:08;30.03;;;27.53;;
11396;SDS011;5754;43.726;7.416;2024-03-22T04:59:42;30.83;;;28.20;;
11396;SDS011;5754;43.726;7.416;2024-03-22T05:02:18;30.03;;;27.43;;
11396;SDS011;5754;43.726;7.416;2024-03-22T05:04:54;32.13;;;29.33;;
11396;SDS011;5754;43.726;7.416;2024-03-22T05:07:28;32.47;;;29.67;;
11396;SDS011;5754;43.726;7.416;2024-03-22T05:10:03;32.47;;;29.80;;
11396;SDS011;5754;43.726;7.416;2024-03-22T05:12:38;30.53;;;28.00;;
11396;SDS011;5754;43.726;7.416;2024-03-22T05:15:14;31.43;;;28.87;;
11396;SDS011;5754;43.726;7.416;2024-03-22T05:17:48;31.87;;;29.27;;
11396;SDS011;5754;43.726;7.416;2024-03-22T05:20:23;31.00;;;28.60;;
11396;SDS011;5754;43.726;7.416;2024-03-22T05:22:58;30.83;;;28.13;;
11396;SDS011;5754;43.726;7.416;2024-03-22T05:25:33;30.00;;;27.20;;
11396;SDS011;5754;43.726;7.416;2024-03-22T05:28:07;30.33;;;27.83;;
11396;SDS011;5754;43.726;7.416;2024-03-22T05:30:41;30.43;;;27.97;;
11396;SDS011;5754;43.726;7.416;2024-03-22T05:33:16;29.87;;;27.37;;
11396;SDS011;5754;43.726;7.416;2024-03-22T05:35:52;29.90;;;27.53;;
11396;SDS011;5754;43.726;7.416;2024-03-22T05:38:26;30.40;;;27.90;;
11396;SDS011;5754;43.726;7.416;2024-03-22T05:41:05;30.07;;;27.67;;
11396;SDS011;5754;43.726;7.416;2024-03-22T05:43:39;30.37;;;27.80;;
11396;SDS011;5754;43.726;7.416;2024-03-22T05:46:13;29.20;;;27.03;;
11396;SDS011;5754;43.726;7.416;2024-03-22T05:48:48;29.83;;;27.47;;
11396;SDS011;5754;43.726;7.416;2024-03-22T05:51:25;32.17;;;29.23;;
11396;SDS011;5754;43.726;7.416;2024-03-22T05:54:00;33.03;;;30.43;;
11396;SDS011;5754;43.726;7.416;2024-03-22T05:56:34;40.97;;;37.33;;
11396;SDS011;5754;43.726;7.416;2024-03-22T05:59:09;34.13;;;31.40;;
11396;SDS011;5754;43.726;7.416;2024-03-22T06:01:43;33.20;;;30.60;;
11396;SDS011;5754;43.726;7.416;2024-03-22T06:04:18;29.30;;;27.07;;
11396;SDS011;5754;43.726;7.416;2024-03-22T06:06:52;31.00;;;28.50;;
11396;SDS011;5754;43.726;7.416;2024-03-22T06:09:26;29.97;;;27.47;;
11396;SDS011;5754;43.726;7.416;2024-03-22T06:12:21;34.47;;;31.87;;
11396;SDS011;5754;43.726;7.416;2024-03-22T06:14:57;33.73;;;31.03;;
11396;SDS011;5754;43.726;7.416;2024-03-22T06:17:32;32.43;;;30.03;;
11396;SDS011;5754;43.726;7.416;2024-03-22T06:20:08;32.90;;;30.27;;
11396;SDS011;5754;43.726;7.416;2024-03-22T06:22:43;33.03;;;30.43;;
11396;SDS011;5754;43.726;7.416;2024-03-22T06:25:19;33.90;;;30.97;;
11396;SDS011;5754;43.726;7.416;2024-03-22T06:27:53;35.97;;;33.27;;
11396;SDS011;5754;43.726;7.416;2024-03-22T06:30:27;36.10;;;33.57;;
11396;SDS011;5754;43.726;7.416;2024-03-22T06:33:02;35.97;;;32.97;;
11396;SDS011;5754;43.726;7.416;2024-03-22T06:35:37;36.37;;;33.83;;
11396;SDS011;5754;43.726;7.416;2024-03-22T06:38:12;38.67;;;35.97;;
11396;SDS011;5754;43.726;7.416;2024-03-22T06:40:46;41.43;;;38.73;;
11396;SDS011;5754;43.726;7.416;2024-03-22T06:43:21;47.67;;;44.57;;
11396;SDS011;5754;43.726;7.416;2024-03-22T06:45:55;55.33;;;52.10;;
11396;SDS011;5754;43.726;7.416;2024-03-22T06:48:29;61.83;;;58.33;;
11396;SDS011;5754;43.726;7.416;2024-03-22T06:51:04;68.30;;;64.40;;
11396;SDS011;5754;43.726;7.416;2024-03-22T06:53:39;69.80;;;65.87;;
11396;SDS011;5754;43.726;7.416;2024-03-22T06:56:14;75.10;;;70.90;;
11396;SDS011;5754;43.726;7.416;2024-03-22T06:58:48;74.97;;;70.73;;
11396;SDS011;5754;43.726;7.416;2024-03-22T07:01:23;79.90;;;75.60;;
11396;SDS011;5754;43.726;7.416;2024-03-22T07:03:57;81.27;;;76.80;;
11396;SDS011;5754;43.726;7.416;2024-03-22T07:06:31;81.60;;;77.20;;
11396;SDS011;5754;43.726;7.416;2024-03-22T07:09:07;79.53;;;75.17;;
11396;SDS011;5754;43.726;7.416;2024-03-22T07:11:42;83.10;;;78.40;;
11396;SDS011;5754;43.726;7.416;2024-03-22T07:14:17;80.47;;;75.87;;
11396;SDS011;5754;43.726;7.416;2024-03-22T07:16:52;78.93;;;74.50;;
11396;SDS011;5754;43.726;7.416;2024-03-22T07:19:28;79.87;;;75.43;;
11396;SDS011;5754;43.726;7.416;2024-03-22T07:22:03;79.33;;;75.10;;
11396;SDS011;5754;43.726;7.416;2024-03-22T07:24:38;77.97;;;73.57;;
11396;SDS011;5754;43.726;7.416;2024-03-22T07:27:13;81.47;;;76.53;;
11396;SDS011;5754;43.726;7.416;2024-03-22T07:29:52;83.00;;;78.50;;
11396;SDS011;5754;43.726;7.416;2024-03-22T07:32:27;82.93;;;78.60;;
11396;SDS011;5754;43.726;7.416;2024-03-22T07:35:02;84.30;;;79.87;;
11396;SDS011;5754;43.726;7.416;2024-03-22T07:37:36;88.27;;;83.63;;
11396;SDS011;5754;43.726;7.416;2024-03-22T07:40:11;88.57;;;84.15;;
11396;SDS011;5754;43.726;7.416;2024-03-22T07:42:46;90.28;;;85.70;;
11396;SDS011;5754;43.726;7.416;2024-03-22T07:45:20;92.57;;;87.78;;
11396;SDS011;5754;43.726;7.416;2024-03-22T07:47:55;93.65;;;88.95;;
11396;SDS011;5754;43.726;7.416;2024-03-22T07:50:30;92.33;;;87.73;;
11396;SDS011;5754;43.726;7.416;2024-03-22T07:53:04;92.07;;;87.37;;
11396;SDS011;5754;43.726;7.416;2024-03-22T07:55:39;91.40;;;86.67;;
11396;SDS011;5754;43.726;7.416;2024-03-22T07:58:13;91.93;;;87.33;;
11396;SDS011;5754;43.726;7.416;2024-03-22T08:00:49;93.43;;;88.83;;
11396;SDS011;5754;43.726;7.416;2024-03-22T08:03:24;96.70;;;91.67;;
11396;SDS011;5754;43.726;7.416;2024-03-22T08:05:59;95.57;;;90.77;;
11396;SDS011;5754;43.726;7.416;2024-03-22T08:08:33;94.33;;;89.33;;
11396;SDS011;5754;43.726;7.416;2024-03-22T08:11:07;94.53;;;89.67;;
11396;SDS011;5754;43.726;7.416;2024-03-22T08:13:43;94.30;;;89.40;;
11396;SDS011;5754;43.726;7.416;2024-03-22T08:16:17;96.20;;;91.20;;
11396;SDS011;5754;43.726;7.416;2024-03-22T08:18:53;95.17;;;90.47;;
11396;SDS011;5754;43.726;7.416;2024-03-22T08:21:28;95.77;;;91.17;;
11396;SDS011;5754;43.726;7.416;2024-03-22T08:24:04;94.47;;;89.80;;
11396;SDS011;5754;43.726;7.416;2024-03-22T08:26:40;94.70;;;89.90;;
11396;SDS011;5754;43.726;7.416;2024-03-22T08:29:18;94.47;;;89.73;;
11396;SDS011;5754;43.726;7.416;2024-03-22T08:31:54;95.57;;;90.87;;
11396;SDS011;5754;43.726;7.416;2024-03-22T08:34:32;97.10;;;92.33;;
11396;SDS011;5754;43.726;7.416;2024-03-22T08:37:07;93.53;;;88.67;;
11396;SDS011;5754;43.726;7.416;2024-03-22T08:39:43;95.07;;;90.37;;
11396;SDS011;5754;43.726;7.416;2024-03-22T08:42:18;96.03;;;91.20;;
11396;SDS011;5754;43.726;7.416;2024-03-22T08:44:52;97.50;;;92.80;;
11396;SDS011;5754;43.726;7.416;2024-03-22T08:47:27;100.40;;;95.17;;
11396;SDS011;5754;43.726;7.416;2024-03-22T08:50:02;97.90;;;93.20;;
11396;SDS011;5754;43.726;7.416;2024-03-22T08:52:37;98.83;;;93.93;;
11396;SDS011;5754;43.726;7.416;2024-03-22T08:55:12;97.70;;;92.80;;
11396;SDS011;5754;43.726;7.416;2024-03-22T08:57:47;97.53;;;92.80;;
11396;SDS011;5754;43.726;7.416;2024-03-22T09:00:23;96.80;;;92.10;;
11396;SDS011;5754;43.726;7.416;2024-03-22T09:02:59;96.23;;;91.53;;
11396;SDS011;5754;43.726;7.416;2024-03-22T09:05:33;96.45;;;91.75;;
11396;SDS011;5754;43.726;7.416;2024-03-22T09:08:08;97.60;;;92.97;;
11396;SDS011;5754;43.726;7.416;2024-03-22T09:10:44;96.25;;;91.68;;
11396;SDS011;5754;43.726;7.416;2024-03-22T09:13:19;97.30;;;92.70;;
11396;SDS011;5754;43.726;7.416;2024-03-22T09:16:02;96.90;;;92.40;;
11396;SDS011;5754;43.726;7.416;2024-03-22T09:18:36;97.95;;;93.15;;
11396;SDS011;5754;43.726;7.416;2024-03-22T09:21:10;96.87;;;92.20;;
11396;SDS011;5754;43.726;7.416;2024-03-22T09:23:46;94.93;;;90.53;;
11396;SDS011;5754;43.726;7.416;2024-03-22T09:26:20;95.10;;;90.40;;
11396;SDS011;5754;43.726;7.416;2024-03-22T09:28:55;95.07;;;90.57;;
11396;SDS011;5754;43.726;7.416;2024-03-22T09:31:29;96.17;;;91.43;;
11396;SDS011;5754;43.726;7.416;2024-03-22T09:34:06;95.57;;;90.93;;
11396;SDS011;5754;43.726;7.416;2024-03-22T09:36:40;95.70;;;90.90;;
11396;SDS011;5754;43.726;7.416;2024-03-22T09:39:17;96.87;;;92.23;;
11396;SDS011;5754;43.726;7.416;2024-03-22T09:41:51;96.60;;;91.90;;
11396;SDS011;5754;43.726;7.416;2024-03-22T09:44:27;99.97;;;95.10;;
11396;SDS011;5754;43.726;7.416;2024-03-22T09:47:01;98.63;;;93.73;;
11396;SDS011;5754;43.726;7.416;2024-03-22T09:49:36;93.77;;;89.30;;
11396;SDS011;5754;43.726;7.416;2024-03-22T09:52:10;98.00;;;93.30;;
11396;SDS011;5754;43.726;7.416;2024-03-22T09:54:48;97.33;;;92.67;;
11396;SDS011;5754;43.726;7.416;2024-03-22T09:57:25;99.27;;;94.33;;
11396;SDS011;5754;43.726;7.416;2024-03-22T10:00:00;96.70;;;92.20;;
11396;SDS011;5754;43.726;7.416;2024-03-22T10:02:47;99.03;;;94.13;;
11396;SDS011;5754;43.726;7.416;2024-03-22T10:05:23;98.05;;;93.35;;
11396;SDS011;5754;43.726;7.416;2024-03-22T10:07:58;98.10;;;93.30;;
11396;SDS011;5754;43.726;7.416;2024-03-22T10:10:34;99.67;;;94.87;;
11396;SDS011;5754;43.726;7.416;2024-03-22T10:13:08;97.30;;;92.67;;
11396;SDS011;5754;43.726;7.416;2024-03-22T10:15:43;94.45;;;89.85;;
11396;SDS011;5754;43.726;7.416;2024-03-22T10:18:17;97.83;;;93.03;;
11396;SDS011;5754;43.726;7.416;2024-03-22T10:21:02;97.35;;;92.60;;
11396;SDS011;5754;43.726;7.416;2024-03-22T10:23:37;97.67;;;93.07;;
11396;SDS011;5754;43.726;7.416;2024-03-22T10:26:11;98.70;;;94.10;;
11396;SDS011;5754;43.726;7.416;2024-03-22T10:28:45;98.00;;;93.50;;
11396;SDS011;5754;43.726;7.416;2024-03-22T10:31:21;97.87;;;93.17;;
11396;SDS011;5754;43.726;7.416;2024-03-22T10:33:56;96.00;;;91.30;;
11396;SDS011;5754;43.726;7.416;2024-03-22T10:36:33;97.55;;;92.75;;
11396;SDS011;5754;43.726;7.416;2024-03-22T10:39:08;98.62;;;93.72;;
11396;SDS011;5754;43.726;7.416;2024-03-22T10:41:45;98.17;;;93.57;;
11396;SDS011;5754;43.726;7.416;2024-03-22T10:44:21;99.03;;;94.23;;
11396;SDS011;5754;43.726;7.416;2024-03-22T10:46:57;97.83;;;92.93;;
11396;SDS011;5754;43.726;7.416;2024-03-22T10:49:36;96.60;;;91.90;;
11396;SDS011;5754;43.726;7.416;2024-03-22T10:52:11;96.97;;;92.23;;
11396;SDS011;5754;43.726;7.416;2024-03-22T10:54:47;98.83;;;94.13;;
11396;SDS011;5754;43.726;7.416;2024-03-22T10:57:22;97.10;;;92.47;;
11396;SDS011;5754;43.726;7.416;2024-03-22T10:59:56;99.17;;;94.13;;
11396;SDS011;5754;43.726;7.416;2024-03-22T11:02:32;98.43;;;93.67;;
11396;SDS011;5754;43.726;7.416;2024-03-22T11:05:07;97.57;;;92.60;;
11396;SDS011;5754;43.726;7.416;2024-03-22T11:08:02;99.10;;;94.40;;
11396;SDS011;5754;43.726;7.416;2024-03-22T11:10:41;98.57;;;93.87;;
11396;SDS011;5754;43.726;7.416;2024-03-22T11:13:17;97.13;;;92.43;;
11396;SDS011;5754;43.726;7.416;2024-03-22T11:15:51;95.77;;;91.27;;
11396;SDS011;5754;43.726;7.416;2024-03-22T11:18:26;99.00;;;94.00;;
11396;SDS011;5754;43.726;7.416;2024-03-22T11:21:00;97.70;;;93.00;;
11396;SDS011;5754;43.726;7.416;2024-03-22T11:23:36;96.03;;;91.23;;
11396;SDS011;5754;43.726;7.416;2024-03-22T11:26:10;99.43;;;94.53;;
11396;SDS011;5754;43.726;7.416;2024-03-22T11:28:45;96.87;;;92.27;;
11396;SDS011;5754;43.726;7.416;2024-03-22T11:31:20;96.70;;;92.00;;
11396;SDS011;5754;43.726;7.416;2024-03-22T11:33:59;96.03;;;91.37;;
11396;SDS011;5754;43.726;7.416;2024-03-22T11:36:35;95.20;;;90.50;;
11396;SDS011;5754;43.726;7.416;2024-03-22T11:39:09;95.33;;;90.73;;
11396;SDS011;5754;43.726;7.416;2024-03-22T11:41:43;94.13;;;89.47;;
11396;SDS011;5754;43.726;7.416;2024-03-22T11:44:18;99.97;;;95.03;;
11396;SDS011;5754;43.726;7.416;2024-03-22T11:46:53;97.37;;;92.60;;
11396;SDS011;5754;43.726;7.416;2024-03-22T11:49:27;98.53;;;93.90;;
11396;SDS011;5754;43.726;7.416;2024-03-22T11:52:03;98.03;;;93.03;;
11396;SDS011;5754;43.726;7.416;2024-03-22T11:54:37;95.40;;;90.70;;
11396;SDS011;5754;43.726;7.416;2024-03-22T11:57:12;97.30;;;92.40;;
11396;SDS011;5754;43.726;7.416;2024-03-22T11:59:47;96.77;;;91.77;;
11396;SDS011;5754;43.726;7.416;2024-03-22T12:02:31;96.47;;;91.77;;
11396;SDS011;5754;43.726;7.416;2024-03-22T12:05:06;97.77;;;93.10;;
11396;SDS011;5754;43.726;7.416;2024-03-22T12:07:41;93.67;;;89.07;;
11396;SDS011;5754;43.726;7.416;2024-03-22T12:10:17;95.43;;;90.87;;
11396;SDS011;5754;43.726;7.416;2024-03-22T12:12:51;98.03;;;93.40;;
11396;SDS011;5754;43.726;7.416;2024-03-22T12:15:28;96.43;;;91.80;;
11396;SDS011;5754;43.726;7.416;2024-03-22T12:18:03;97.67;;;92.97;;
11396;SDS011;5754;43.726;7.416;2024-03-22T12:20:37;96.53;;;91.80;;
11396;SDS011;5754;43.726;7.416;2024-03-22T12:23:12;97.07;;;92.30;;
11396;SDS011;5754;43.726;7.416;2024-03-22T12:25:46;95.87;;;91.37;;
11396;SDS011;5754;43.726;7.416;2024-03-22T12:28:21;96.70;;;91.87;;
11396;SDS011;5754;43.726;7.416;2024-03-22T12:33:38;97.83;;;93.03;;
11396;SDS011;5754;43.726;7.416;2024-03-22T12:36:12;97.57;;;92.67;;
11396;SDS011;5754;43.726;7.416;2024-03-22T12:38:47;95.70;;;90.97;;
11396;SDS011;5754;43.726;7.416;2024-03-22T12:41:21;96.37;;;91.37;;
11396;SDS011;5754;43.726;7.416;2024-03-22T12:43:56;94.03;;;89.43;;
11396;SDS011;5754;43.726;7.416;2024-03-22T12:46:31;93.00;;;88.47;;
11396;SDS011;5754;43.726;7.416;2024-03-22T12:49:07;93.17;;;88.27;;
11396;SDS011;5754;43.726;7.416;2024-03-22T12:51:42;93.13;;;88.73;;
11396;SDS011;5754;43.726;7.416;2024-03-22T12:54:16;94.20;;;89.70;;
11396;SDS011;5754;43.726;7.416;2024-03-22T12:56:52;92.67;;;87.83;;
11396;SDS011;5754;43.726;7.416;2024-03-22T12:59:27;92.47;;;87.90;;
11396;SDS011;5754;43.726;7.416;2024-03-22T13:02:03;92.57;;;88.27;;
11396;SDS011;5754;43.726;7.416;2024-03-22T13:04:37;92.40;;;87.80;;
11396;SDS011;5754;43.726;7.416;2024-03-22T13:07:11;96.30;;;91.60;;
11396;SDS011;5754;43.726;7.416;2024-03-22T13:09:47;94.07;;;89.57;;
11396;SDS011;5754;43.726;7.416;2024-03-22T13:12:21;92.70;;;88.30;;
11396;SDS011;5754;43.726;7.416;2024-03-22T13:14:57;92.97;;;88.37;;
11396;SDS011;5754;43.726;7.416;2024-03-22T13:17:38;91.40;;;86.60;;
11396;SDS011;5754;43.726;7.416;2024-03-22T13:20:13;92.60;;;88.20;;
11396;SDS011;5754;43.726;7.416;2024-03-22T13:22:49;89.93;;;85.57;;
11396;SDS011;5754;43.726;7.416;2024-03-22T13:25:24;91.90;;;87.20;;
11396;SDS011;5754;43.726;7.416;2024-03-22T13:27:59;93.23;;;88.63;;
11396;SDS011;5754;43.726;7.416;2024-03-22T13:30:36;88.90;;;84.50;;
11396;SDS011;5754;43.726;7.416;2024-03-22T13:33:11;87.47;;;83.20;;
11396;SDS011;5754;43.726;7.416;2024-03-22T13:35:46;90.30;;;85.90;;
11396;SDS011;5754;43.726;7.416;2024-03-22T13:38:20;89.00;;;84.63;;
11396;SDS011;5754;43.726;7.416;2024-03-22T13:40:55;90.83;;;86.43;;
11396;SDS011;5754;43.726;7.416;2024-03-22T13:43:31;85.10;;;80.73;;
11396;SDS011;5754;43.726;7.416;2024-03-22T13:46:05;84.23;;;80.13;;
11396;SDS011;5754;43.726;7.416;2024-03-22T13:48:39;83.47;;;79.30;;
11396;SDS011;5754;43.726;7.416;2024-03-22T13:51:14;82.37;;;78.37;;
11396;SDS011;5754;43.726;7.416;2024-03-22T13:53:50;84.40;;;80.17;;
11396;SDS011;5754;43.726;7.416;2024-03-22T13:56:24;82.93;;;78.83;;
11396;SDS011;5754;43.726;7.416;2024-03-22T13:58:59;86.03;;;81.50;;
11396;SDS011;5754;43.726;7.416;2024-03-22T14:01:35;84.93;;;80.73;;
11396;SDS011;5754;43.726;7.416;2024-03-22T14:04:10;85.03;;;80.93;;
11396;SDS011;5754;43.726;7.416;2024-03-22T14:06:45;81.70;;;77.70;;
11396;SDS011;5754;43.726;7.416;2024-03-22T14:09:20;81.53;;;77.53;;
11396;SDS011;5754;43.726;7.416;2024-03-22T14:11:54;84.03;;;79.73;;
11396;SDS011;5754;43.726;7.416;2024-03-22T14:14:29;85.83;;;81.40;;
11396;SDS011;5754;43.726;7.416;2024-03-22T14:17:03;83.93;;;79.57;;
11396;SDS011;5754;43.726;7.416;2024-03-22T14:19:37;81.90;;;77.70;;
11396;SDS011;5754;43.726;7.416;2024-03-22T14:22:12;80.30;;;76.43;;
11396;SDS011;5754;43.726;7.416;2024-03-22T14:24:46;83.20;;;78.77;;
11396;SDS011;5754;43.726;7.416;2024-03-22T14:27:20;81.47;;;77.37;;
11396;SDS011;5754;43.726;7.416;2024-03-22T14:29:55;82.30;;;78.23;;
11396;SDS011;5754;43.726;7.416;2024-03-22T14:32:29;79.20;;;75.37;;
11396;SDS011;5754;43.726;7.416;2024-03-22T14:35:06;75.73;;;71.87;;
11396;SDS011;5754;43.726;7.416;2024-03-22T14:37:41;75.63;;;71.73;;
11396;SDS011;5754;43.726;7.416;2024-03-22T14:40:16;76.87;;;73.07;;
11396;SDS011;5754;43.726;7.416;2024-03-22T14:42:50;75.43;;;71.73;;
11396;SDS011;5754;43.726;7.416;2024-03-22T14:45:26;75.97;;;72.20;;
11396;SDS011;5754;43.726;7.416;2024-03-22T14:48:00;76.10;;;72.33;;
11396;SDS011;5754;43.726;7.416;2024-03-22T14:50:40;74.50;;;70.83;;
11396;SDS011;5754;43.726;7.416;2024-03-22T14:53:14;76.03;;;72.27;;
11396;SDS011;5754;43.726;7.416;2024-03-22T14:55:51;75.43;;;71.10;;
11396;SDS011;5754;43.726;7.416;2024-03-22T14:58:27;74.57;;;70.57;;
11396;SDS011;5754;43.726;7.416;2024-03-22T15:01:03;73.77;;;70.00;;
11396;SDS011;5754;43.726;7.416;2024-03-22T15:03:38;72.73;;;69.03;;
11396;SDS011;5754;43.726;7.416;2024-03-22T15:06:14;70.33;;;66.73;;
11396;SDS011;5754;43.726;7.416;2024-03-22T15:08:49;73.07;;;69.30;;
11396;SDS011;5754;43.726;7.416;2024-03-22T15:11:24;70.13;;;66.63;;
11396;SDS011;5754;43.726;7.416;2024-03-22T15:13:59;69.50;;;65.70;;
11396;SDS011;5754;43.726;7.416;2024-03-22T15:16:33;68.17;;;64.60;;
11396;SDS011;5754;43.726;7.416;2024-03-22T15:19:08;66.43;;;63.03;;
11396;SDS011;5754;43.726;7.416;2024-03-22T15:21:43;68.17;;;64.67;;
11396;SDS011;5754;43.726;7.416;2024-03-22T15:24:17;66.13;;;62.77;;
11396;SDS011;5754;43.726;7.416;2024-03-22T15:26:53;66.70;;;63.10;;